Emmanuel Tomasos — C6SS7 — position and weather

sailwx.info

Track history (hours):
 
Tides and Currents Weather Stations Pressure Air Temp Water Temp Dewpoint Dewpoint Depression Visibility Wind Speed Wind Dir Waves Ship Positions

Emmanuel Tomasos

Last reported at 2015-Mar-28 04:33 UTC. Time now 2015-Mar-28 05:15 UTC.
Position N 57°35' E 011°10'.

Length 182 m; draft 7.2 m.

Type: Tanker. MMSI: 311459000.

Date/timePositionNaut miles runAvg speedWind from/ knotsBaromVisibWave heightAir tempDewpointWater temp
2015-Mar-28 04:33N 57°35' E 011°10'1414.1
2015-Mar-28 03:34N 57°45' E 010°50'1414.3
2015-Mar-28 02:34N 57°48' E 010°24'1514.8
2015-Mar-28 01:33N 57°47' E 009°56'27214.1
2015-Mar-27 06:14N 54°13' E 004°55'913.1
2015-Mar-27 05:32N 54°05' E 004°48'16513.4
2015-Mar-26 17:10N 51°42' E 002°31'915.2
2015-Mar-26 16:34N 51°35' E 002°21'1514.9
2015-Mar-26 15:34N 51°24' E 002°05'1514.9
2015-Mar-26 14:34N 51°13' E 001°49'1414.5
2015-Mar-26 13:34N 51°02' E 001°34'1513.1
2015-Mar-26 12:26N 50°48' E 001°24'4112.6
2015-Mar-26 09:09N 50°24' E 000°32'5411.8
2015-Mar-26 04:33N 49°45' W 000°26'1414.3
2015-Mar-26 03:33N 49°32' W 000°16'1312.9
2015-Mar-26 02:34N 49°27' E 000°02'1212.4
2015-Mar-26 01:34N 49°26' E 000°21'8 8.0
2015-Mar-26 00:34N 49°27' E 000°33'8 6.8
2015-Mar-25 23:22N 49°31' E 000°44'  
2015-Mar-23 13:15N 49°24' E 000°52'4 6.5
2015-Mar-23 12:34N 49°28' E 000°49'6 5.7
2015-Mar-23 11:34N 49°28' E 000°40'8 8.1
2015-Mar-23 10:33N 49°28' E 000°27'1211.8
2015-Mar-23 09:33N 49°26' E 000°10'10 9.8
2015-Mar-23 08:33N 49°29' W 000°05'7 7.2
2015-Mar-23 07:33N 49°31' W 000°15'1111.5
2015-Mar-23 06:33N 49°41' W 000°24'6112.2
2015-Mar-23 01:31N 50°33' E 000°27'1313.1
2015-Mar-23 00:33N 50°39' E 000°45'1712.7
2015-Mar-22 23:13N 50°49' E 001°07'1214.2
2015-Mar-22 22:20N 50°57' E 001°21'1317.2
2015-Mar-22 21:33N 51°07' E 001°37'1717.0
2015-Mar-22 20:33N 51°20' E 001°53'1515.2
2015-Mar-22 19:33N 51°33' E 002°06'3012.9
2015-Mar-22 17:12N 51°58' E 002°35'3111.6
2015-Mar-22 14:33N 52°27' E 002°51'1312.8
2015-Mar-22 13:32N 52°39' E 003°00'1514.1
2015-Mar-22 12:27N 52°52' E 003°13'1314.4
2015-Mar-22 11:31N 53°05' E 003°20'1514.7
2015-Mar-22 10:29N 53°19' E 003°28'1314.2
2015-Mar-22 09:32N 53°32' E 003°35'35112.9
2015-Mar-21 06:23N 57°50' E 010°39'1214.3
2015-Mar-21 05:33N 57°43' E 010°57'1414.1
2015-Mar-21 04:33N 57°33' E 011°17'1313.3
2015-Mar-21 03:33N 57°22' E 011°30'1414.2
2015-Mar-21 02:33N 57°09' E 011°39'1414.0
2015-Mar-21 01:33N 56°56' E 011°48'1212.3
2015-Mar-21 00:33N 56°44' E 011°50'12812.3
2015-Mar-20 14:12N 54°41' E 010°49'913.5
2015-Mar-20 13:33N 54°36' E 011°02'1414.0
2015-Mar-20 12:34N 54°32' E 011°25'1313.2
2015-Mar-20 11:33N 54°27' E 011°46'1313.0
2015-Mar-20 10:33N 54°26' E 012°08'1312.7
2015-Mar-20 09:33N 54°37' E 012°19'1312.5
2015-Mar-20 08:32N 54°45' E 012°37'3812.7
2015-Mar-20 05:33N 54°58' E 013°38'1312.8
2015-Mar-20 04:33N 55°03' E 013°59'1312.6
2015-Mar-20 03:33N 55°12' E 014°15'1312.9
2015-Mar-20 02:33N 55°22' E 014°29'1313.0
2015-Mar-20 01:33N 55°30' E 014°47'1312.8
2015-Mar-20 00:33N 55°36' E 015°07'1312.8
2015-Mar-19 23:33N 55°39' E 015°29'1312.4
2015-Mar-19 22:32N 55°43' E 015°51'5012.7
2015-Mar-19 18:33N 55°55' E 017°18'1412.9
2015-Mar-19 17:29N 55°59' E 017°42'28012.7
2015-Mar-18 19:21N 59°36' E 023°13'1113.3
2015-Mar-18 18:33N 59°39' E 023°33'1413.3
2015-Mar-18 17:31N 59°43' E 023°59'1313.2
2015-Mar-18 16:34N 59°47' E 024°23'1313.1
2015-Mar-18 15:33N 59°49' E 024°49'4413.1
2015-Mar-18 12:12N 59°59' E 026°14'913.1
2015-Mar-18 11:33N 60°01' E 026°31'1312.8
2015-Mar-18 10:32N 59°60' E 026°57'  
Track history (hours):
 
Tides and Currents Weather Stations Pressure Air Temp Water Temp Dewpoint Dewpoint Depression Visibility Wind Speed Wind Dir Waves Ship Positions

Emmanuel Tomasos

Last reported at 2015-Mar-28 04:33 UTC. Time now 2015-Mar-28 05:15 UTC.
Position N 57°35' E 011°10'.

Length 182 m; draft 7.2 m.

Type: Tanker. MMSI: 311459000.

Date/timePositionNaut miles runAvg speedWind from/ knotsBaromVisibWave heightAir tempDewpointWater temp
2015-Mar-28 04:33N 57°35' E 011°10'1414.1
2015-Mar-28 03:34N 57°45' E 010°50'1414.3
2015-Mar-28 02:34N 57°48' E 010°24'1514.8
2015-Mar-28 01:33N 57°47' E 009°56'27214.1
2015-Mar-27 06:14N 54°13' E 004°55'913.1
2015-Mar-27 05:32N 54°05' E 004°48'16513.4
2015-Mar-26 17:10N 51°42' E 002°31'915.2
2015-Mar-26 16:34N 51°35' E 002°21'1514.9
2015-Mar-26 15:34N 51°24' E 002°05'1514.9
2015-Mar-26 14:34N 51°13' E 001°49'1414.5
2015-Mar-26 13:34N 51°02' E 001°34'1513.1
2015-Mar-26 12:26N 50°48' E 001°24'4112.6
2015-Mar-26 09:09N 50°24' E 000°32'5411.8
2015-Mar-26 04:33N 49°45' W 000°26'1414.3
2015-Mar-26 03:33N 49°32' W 000°16'1312.9
2015-Mar-26 02:34N 49°27' E 000°02'1212.4
2015-Mar-26 01:34N 49°26' E 000°21'8 8.0
2015-Mar-26 00:34N 49°27' E 000°33'8 6.8
2015-Mar-25 23:22N 49°31' E 000°44'  
2015-Mar-23 13:15N 49°24' E 000°52'4 6.5
2015-Mar-23 12:34N 49°28' E 000°49'6 5.7
2015-Mar-23 11:34N 49°28' E 000°40'8 8.1
2015-Mar-23 10:33N 49°28' E 000°27'1211.8
2015-Mar-23 09:33N 49°26' E 000°10'10 9.8
2015-Mar-23 08:33N 49°29' W 000°05'7 7.2
2015-Mar-23 07:33N 49°31' W 000°15'1111.5
2015-Mar-23 06:33N 49°41' W 000°24'6112.2
2015-Mar-23 01:31N 50°33' E 000°27'1313.1
2015-Mar-23 00:33N 50°39' E 000°45'1712.7
2015-Mar-22 23:13N 50°49' E 001°07'1214.2
2015-Mar-22 22:20N 50°57' E 001°21'1317.2
2015-Mar-22 21:33N 51°07' E 001°37'1717.0
2015-Mar-22 20:33N 51°20' E 001°53'1515.2
2015-Mar-22 19:33N 51°33' E 002°06'3012.9
2015-Mar-22 17:12N 51°58' E 002°35'3111.6
2015-Mar-22 14:33N 52°27' E 002°51'1312.8
2015-Mar-22 13:32N 52°39' E 003°00'1514.1
2015-Mar-22 12:27N 52°52' E 003°13'1314.4
2015-Mar-22 11:31N 53°05' E 003°20'1514.7
2015-Mar-22 10:29N 53°19' E 003°28'1314.2
2015-Mar-22 09:32N 53°32' E 003°35'35112.9
2015-Mar-21 06:23N 57°50' E 010°39'1214.3
2015-Mar-21 05:33N 57°43' E 010°57'1414.1
2015-Mar-21 04:33N 57°33' E 011°17'1313.3
2015-Mar-21 03:33N 57°22' E 011°30'1414.2
2015-Mar-21 02:33N 57°09' E 011°39'1414.0
2015-Mar-21 01:33N 56°56' E 011°48'1212.3
2015-Mar-21 00:33N 56°44' E 011°50'12812.3
2015-Mar-20 14:12N 54°41' E 010°49'913.5
2015-Mar-20 13:33N 54°36' E 011°02'1414.0
2015-Mar-20 12:34N 54°32' E 011°25'1313.2
2015-Mar-20 11:33N 54°27' E 011°46'1313.0
2015-Mar-20 10:33N 54°26' E 012°08'1312.7
2015-Mar-20 09:33N 54°37' E 012°19'1312.5
2015-Mar-20 08:32N 54°45' E 012°37'3812.7
2015-Mar-20 05:33N 54°58' E 013°38'1312.8
2015-Mar-20 04:33N 55°03' E 013°59'1312.6
2015-Mar-20 03:33N 55°12' E 014°15'1312.9
2015-Mar-20 02:33N 55°22' E 014°29'1313.0
2015-Mar-20 01:33N 55°30' E 014°47'1312.8
2015-Mar-20 00:33N 55°36' E 015°07'1312.8
2015-Mar-19 23:33N 55°39' E 015°29'1312.4
2015-Mar-19 22:32N 55°43' E 015°51'5012.7
2015-Mar-19 18:33N 55°55' E 017°18'1412.9
2015-Mar-19 17:29N 55°59' E 017°42'28012.7
2015-Mar-18 19:21N 59°36' E 023°13'1113.3
2015-Mar-18 18:33N 59°39' E 023°33'1413.3
2015-Mar-18 17:31N 59°43' E 023°59'1313.2
2015-Mar-18 16:34N 59°47' E 024°23'1313.1
2015-Mar-18 15:33N 59°49' E 024°49'4413.1
2015-Mar-18 12:12N 59°59' E 026°14'913.1
2015-Mar-18 11:33N 60°01' E 026°31'1312.8
2015-Mar-18 10:32N 59°60' E 026°57'  

Dump ship's entire track history